Time;durP1;ratioP1;P1;durP2;ratioP2;P2;SDS_P1;SDS_P2;PMS_P1;PMS_P2;Temp;Humidity;BMP_temperature;BMP_pressure;BME280_temperature;BME280_humidity;BME280_pressure;Samples;Min_cycle;Max_cycle;Signal;HPM_P1;HPM_P2
2023/04/16 00:00:53;;;;;;;3.40;1.73;;;;;;;;;;5054024;28;20037;-68
2023/04/16 00:03:20;;;;;;;2.75;1.45;;;;;;;;;;5054145;28;20064;-68
2023/04/16 00:06:06;;;;;;;2.25;1.27;;;;;;;;;;5031516;28;20524;-68
2023/04/16 00:08:34;;;;;;;3.65;0.90;;;;;;;;;;5031729;28;20033;-68
2023/04/16 00:11:00;;;;;;;2.35;1.10;;;;;;;;;;5031718;28;20075;-68
2023/04/16 00:13:27;;;;;;;2.50;1.10;;;;;;;;;;5031676;28;20075;-68
2023/04/16 00:15:53;;;;;;;2.22;1.02;;;;;;;;;;5031775;28;20091;-68
2023/04/16 00:18:20;;;;;;;1.58;1.30;;;;;;;;;;5031588;28;20486;-67
2023/04/16 00:20:47;;;;;;;11.05;1.23;;;;;;;;;;5031175;28;20579;-68
2023/04/16 00:23:14;;;;;;;2.40;1.27;;;;;;;;;;5031292;28;20037;-68
2023/04/16 00:25:41;;;;;;;2.67;1.13;;;;;;;;;;5031537;28;20059;-68
2023/04/16 00:28:08;;;;;;;1.58;1.10;;;;;;;;;;5031620;28;20029;-68
2023/04/16 00:30:34;;;;;;;1.65;1.08;;;;;;;;;;5014826;28;20053;-68
2023/04/16 00:33:02;;;;;;;2.45;1.17;;;;;;;;;;5031253;28;20048;-68
2023/04/16 00:35:28;;;;;;;2.28;1.02;;;;;;;;;;5014562;28;20509;-68
2023/04/16 00:37:54;;;;;;;1.55;0.80;;;;;;;;;;5031279;28;20567;-68
2023/04/16 00:40:21;;;;;;;1.42;1.13;;;;;;;;;;5031290;28;20045;-68
2023/04/16 00:42:47;;;;;;;1.67;1.00;;;;;;;;;;5038318;28;20033;-68
2023/04/16 00:45:13;;;;;;;1.13;1.00;;;;;;;;;;5051883;28;20041;-68
2023/04/16 00:47:40;;;;;;;2.50;1.33;;;;;;;;;;5053104;28;20021;-68
2023/04/16 00:50:07;;;;;;;1.95;1.05;;;;;;;;;;5052847;28;20029;-68
2023/04/16 00:52:34;;;;;;;1.67;0.90;;;;;;;;;;5053156;28;20047;-68
2023/04/16 00:55:00;;;;;;;1.65;1.20;;;;;;;;;;5052976;28;20039;-68
2023/04/16 00:57:26;;;;;;;2.95;1.08;;;;;;;;;;5052869;28;20023;-68
2023/04/16 00:59:53;;;;;;;3.40;1.00;;;;;;;;;;5052835;28;20033;-68
2023/04/16 01:02:20;;;;;;;1.73;1.00;;;;;;;;;;5052645;28;20021;-68
2023/04/16 01:04:46;;;;;;;1.60;1.23;;;;;;;;;;5052653;28;20043;-68
2023/04/16 01:07:12;;;;;;;2.15;1.00;;;;;;;;;;5052973;28;20025;-68
2023/04/16 01:09:38;;;;;;;1.92;1.10;;;;;;;;;;5053054;28;20017;-68
2023/04/16 01:12:05;;;;;;;4.38;1.00;;;;;;;;;;5052587;28;20078;-68
2023/04/16 01:14:35;;;;;;;1.35;0.90;;;;;;;;;;5052657;28;20021;-68
2023/04/16 01:17:02;;;;;;;1.25;0.85;;;;;;;;;;5052607;28;20013;-68
2023/04/16 01:19:30;;;;;;;1.20;1.00;;;;;;;;;;5052660;28;20029;-67
2023/04/16 01:21:56;;;;;;;2.50;1.10;;;;;;;;;;5052395;28;20017;-68
2023/04/16 01:24:23;;;;;;;1.45;1.13;;;;;;;;;;5052466;28;20020;-68
2023/04/16 01:26:49;;;;;;;1.58;0.73;;;;;;;;;;5052506;28;20021;-68
2023/04/16 01:29:15;;;;;;;1.98;0.90;;;;;;;;;;5052487;28;20082;-68
2023/04/16 01:31:42;;;;;;;1.27;0.95;;;;;;;;;;5051942;28;20049;-68
2023/04/16 01:34:08;;;;;;;2.22;1.10;;;;;;;;;;5052236;28;20055;-68
2023/04/16 01:36:35;;;;;;;1.88;1.00;;;;;;;;;;5052161;28;20502;-67
2023/04/16 01:39:02;;;;;;;1.35;0.90;;;;;;;;;;5052144;28;20025;-68
2023/04/16 01:41:28;;;;;;;1.95;1.05;;;;;;;;;;5052515;28;20041;-68
2023/04/16 01:43:54;;;;;;;1.30;0.80;;;;;;;;;;5052083;28;20017;-68
2023/04/16 01:46:26;;;;;;;3.33;1.20;;;;;;;;;;5052005;28;20033;-68
2023/04/16 01:48:53;;;;;;;4.25;1.00;;;;;;;;;;5052072;28;20508;-68
2023/04/16 01:51:20;;;;;;;1.50;1.00;;;;;;;;;;5050746;28;20024;-68
2023/04/16 01:53:46;;;;;;;3.17;1.00;;;;;;;;;;5051902;28;20029;-68
2023/04/16 01:56:12;;;;;;;2.38;1.05;;;;;;;;;;5051574;28;20025;-68
2023/04/16 01:58:40;;;;;;;1.58;1.00;;;;;;;;;;5051910;28;20029;-68
2023/04/16 02:01:06;;;;;;;1.10;0.90;;;;;;;;;;5051628;28;20035;-68
2023/04/16 02:03:32;;;;;;;2.78;1.40;;;;;;;;;;5052074;28;20419;-68
2023/04/16 02:06:00;;;;;;;1.20;1.00;;;;;;;;;;5052031;28;20033;-68
2023/04/16 02:08:26;;;;;;;1.98;1.08;;;;;;;;;;5052141;28;20086;-67
2023/04/16 02:10:52;;;;;;;1.75;1.00;;;;;;;;;;5051958;28;20028;-68
2023/04/16 02:13:19;;;;;;;3.42;1.00;;;;;;;;;;5051707;28;20385;-68
2023/04/16 02:15:46;;;;;;;1.80;1.13;;;;;;;;;;5051684;28;20100;-69
2023/04/16 02:18:12;;;;;;;1.95;1.20;;;;;;;;;;5051936;28;20017;-68
2023/04/16 02:20:42;;;;;;;1.77;1.23;;;;;;;;;;5051699;28;20036;-68
2023/04/16 02:23:09;;;;;;;1.92;1.25;;;;;;;;;;5051561;28;20062;-68
2023/04/16 02:25:42;;;;;;;1.92;1.15;;;;;;;;;;5051968;28;20025;-68
2023/04/16 02:28:09;;;;;;;1.25;1.05;;;;;;;;;;5051779;28;20474;-68
2023/04/16 02:30:36;;;;;;;1.83;1.00;;;;;;;;;;5051380;28;20037;-68
2023/04/16 02:33:04;;;;;;;2.42;1.00;;;;;;;;;;5051876;28;20031;-68
2023/04/16 02:35:31;;;;;;;1.83;1.17;;;;;;;;;;5051609;28;20035;-68
2023/04/16 02:37:58;;;;;;;1.77;1.25;;;;;;;;;;5051773;28;20025;-68
2023/04/16 02:40:24;;;;;;;2.15;1.38;;;;;;;;;;5051549;28;20067;-68
2023/04/16 02:42:51;;;;;;;2.35;1.30;;;;;;;;;;5050407;28;20028;-68
2023/04/16 02:45:17;;;;;;;3.35;1.30;;;;;;;;;;5051246;28;20482;-68
2023/04/16 02:47:43;;;;;;;1.92;1.20;;;;;;;;;;5051776;28;20070;-68
2023/04/16 02:50:10;;;;;;;2.20;1.40;;;;;;;;;;5051479;28;20031;-68
2023/04/16 02:52:36;;;;;;;2.20;1.20;;;;;;;;;;5051350;28;20027;-68
2023/04/16 02:55:02;;;;;;;1.52;1.13;;;;;;;;;;5051439;28;20036;-68
2023/04/16 02:57:29;;;;;;;1.25;1.15;;;;;;;;;;5051345;28;20021;-68
2023/04/16 02:59:55;;;;;;;2.08;1.30;;;;;;;;;;5049918;28;20485;-68
2023/04/16 03:02:22;;;;;;;2.50;1.40;;;;;;;;;;5051433;28;20021;-68
2023/04/16 03:04:48;;;;;;;3.05;1.30;;;;;;;;;;5051656;28;20033;-68
2023/04/16 03:07:14;;;;;;;1.65;1.42;;;;;;;;;;5053262;28;20370;-68
2023/04/16 03:09:41;;;;;;;1.48;1.38;;;;;;;;;;5055109;28;20025;-68
2023/04/16 03:12:07;;;;;;;2.28;1.50;;;;;;;;;;5054997;28;20029;-68
2023/04/16 03:14:33;;;;;;;2.80;1.63;;;;;;;;;;5054656;28;20375;-68
2023/04/16 03:17:00;;;;;;;2.65;1.30;;;;;;;;;;5053949;28;20025;-68
2023/04/16 03:19:26;;;;;;;4.85;1.63;;;;;;;;;;5054669;28;20493;-68
2023/04/16 03:21:52;;;;;;;3.15;1.50;;;;;;;;;;5054841;28;20025;-68
2023/04/16 03:24:18;;;;;;;1.52;1.42;;;;;;;;;;5054780;28;20066;-68
2023/04/16 03:26:45;;;;;;;2.55;1.80;;;;;;;;;;5054648;28;20331;-68
2023/04/16 03:29:11;;;;;;;2.72;1.70;;;;;;;;;;5054721;28;20025;-67
2023/04/16 03:31:37;;;;;;;1.48;1.30;;;;;;;;;;5054501;28;20049;-66
2023/04/16 03:34:04;;;;;;;4.80;1.67;;;;;;;;;;5053412;28;20037;-68
2023/04/16 03:36:31;;;;;;;1.65;1.55;;;;;;;;;;5054492;28;20033;-67
2023/04/16 03:38:57;;;;;;;1.80;1.50;;;;;;;;;;5054528;28;20020;-67
2023/04/16 03:41:24;;;;;;;1.83;1.70;;;;;;;;;;5054232;28;20041;-67
2023/04/16 03:43:50;;;;;;;3.25;1.65;;;;;;;;;;5054091;28;20389;-67
2023/04/16 03:46:16;;;;;;;3.05;1.52;;;;;;;;;;5054611;28;20028;-68
2023/04/16 03:48:42;;;;;;;2.72;1.77;;;;;;;;;;5054213;28;20486;-68
2023/04/16 03:51:09;;;;;;;3.05;2.03;;;;;;;;;;5054182;28;20027;-68
2023/04/16 03:53:35;;;;;;;3.72;2.42;;;;;;;;;;5054263;28;20025;-68
2023/04/16 03:56:01;;;;;;;3.03;2.20;;;;;;;;;;5054328;28;20037;-68
2023/04/16 03:58:28;;;;;;;5.45;2.13;;;;;;;;;;5053798;28;20021;-68
2023/04/16 04:00:54;;;;;;;3.08;2.42;;;;;;;;;;5054141;28;20036;-68
2023/04/16 04:03:20;;;;;;;3.92;2.30;;;;;;;;;;5053884;28;20036;-68
2023/04/16 04:05:47;;;;;;;3.67;2.40;;;;;;;;;;5053874;28;20028;-68
2023/04/16 04:08:13;;;;;;;2.50;2.00;;;;;;;;;;5054218;28;20025;-68
2023/04/16 04:10:39;;;;;;;2.90;2.30;;;;;;;;;;5053827;28;20033;-68
2023/04/16 04:13:06;;;;;;;2.92;2.40;;;;;;;;;;5053519;28;20397;-68
2023/04/16 04:15:32;;;;;;;2.47;2.00;;;;;;;;;;5053966;28;20024;-68
2023/04/16 04:17:59;;;;;;;4.05;2.22;;;;;;;;;;5052939;28;20033;-68
2023/04/16 04:20:25;;;;;;;3.90;2.22;;;;;;;;;;5053512;28;20041;-68
2023/04/16 04:22:51;;;;;;;3.03;2.33;;;;;;;;;;5052535;28;20025;-68
2023/04/16 04:25:18;;;;;;;4.35;2.40;;;;;;;;;;5053483;28;20028;-68
2023/04/16 04:27:44;;;;;;;2.92;2.28;;;;;;;;;;5053831;28;20021;-68
2023/04/16 04:30:11;;;;;;;3.15;2.00;;;;;;;;;;5053582;28;20086;-68
2023/04/16 04:32:37;;;;;;;4.10;2.75;;;;;;;;;;5053313;28;20035;-68
2023/04/16 04:35:03;;;;;;;4.03;2.47;;;;;;;;;;5053495;28;20107;-68
2023/04/16 04:37:30;;;;;;;4.97;2.60;;;;;;;;;;5053319;28;20035;-68
2023/04/16 04:39:56;;;;;;;5.22;2.50;;;;;;;;;;5052957;28;20091;-68
2023/04/16 04:42:22;;;;;;;3.97;2.67;;;;;;;;;;5053469;28;20040;-68
2023/04/16 04:44:49;;;;;;;3.97;2.45;;;;;;;;;;5053183;28;20017;-68
2023/04/16 04:47:15;;;;;;;5.22;2.90;;;;;;;;;;5053140;28;20032;-69
2023/04/16 04:49:41;;;;;;;5.13;2.70;;;;;;;;;;5053243;28;20024;-68
2023/04/16 04:52:08;;;;;;;6.82;2.92;;;;;;;;;;5053079;28;20050;-68
2023/04/16 04:54:34;;;;;;;4.13;2.78;;;;;;;;;;5052923;28;20047;-68
2023/04/16 04:57:01;;;;;;;4.63;2.80;;;;;;;;;;5053189;28;20029;-68
2023/04/16 04:59:27;;;;;;;5.30;3.00;;;;;;;;;;5052895;28;20025;-68
2023/04/16 05:01:54;;;;;;;3.97;2.90;;;;;;;;;;5051607;28;20021;-68
2023/04/16 05:04:20;;;;;;;4.70;2.90;;;;;;;;;;5052766;28;20371;-68
2023/04/16 05:06:46;;;;;;;7.72;2.95;;;;;;;;;;5051343;28;20033;-68
2023/04/16 05:09:13;;;;;;;3.65;2.92;;;;;;;;;;5052449;28;20486;-68
2023/04/16 05:11:40;;;;;;;4.82;3.15;;;;;;;;;;5052747;28;20029;-68
2023/04/16 05:14:07;;;;;;;5.28;2.95;;;;;;;;;;5052634;28;20024;-68
2023/04/16 05:16:35;;;;;;;5.20;3.03;;;;;;;;;;5052731;28;20033;-68
2023/04/16 05:19:02;;;;;;;4.22;2.75;;;;;;;;;;5052715;28;20031;-68
2023/04/16 05:21:28;;;;;;;4.97;2.85;;;;;;;;;;5052494;28;20516;-68
2023/04/16 05:23:54;;;;;;;5.53;2.78;;;;;;;;;;5052095;28;20021;-68
2023/04/16 05:26:22;;;;;;;6.80;3.53;;;;;;;;;;5052694;28;20027;-68
2023/04/16 05:28:48;;;;;;;5.90;3.25;;;;;;;;;;5053011;28;20024;-67
2023/04/16 05:31:15;;;;;;;4.20;3.15;;;;;;;;;;5052147;28;20056;-68
2023/04/16 05:33:41;;;;;;;3.80;3.38;;;;;;;;;;5051141;28;20031;-67
2023/04/16 05:36:07;;;;;;;6.03;3.50;;;;;;;;;;5052417;28;20021;-68
2023/04/16 05:38:33;;;;;;;5.68;3.65;;;;;;;;;;5052282;28;20017;-68
2023/04/16 05:41:00;;;;;;;7.70;3.42;;;;;;;;;;5052164;28;20033;-68
2023/04/16 05:43:26;;;;;;;6.07;3.58;;;;;;;;;;5051970;28;20394;-68
2023/04/16 05:45:52;;;;;;;4.78;3.28;;;;;;;;;;5052333;28;20021;-68
2023/04/16 05:48:19;;;;;;;5.72;3.88;;;;;;;;;;5052195;28;20016;-68
2023/04/16 05:50:45;;;;;;;7.68;4.28;;;;;;;;;;5052216;28;20033;-68
2023/04/16 05:53:12;;;;;;;5.13;4.03;;;;;;;;;;5051842;28;20025;-68
2023/04/16 05:55:39;;;;;;;4.97;3.80;;;;;;;;;;5052345;28;20028;-67
2023/04/16 05:58:05;;;;;;;4.90;3.72;;;;;;;;;;5052004;28;20474;-68
2023/04/16 06:00:34;;;;;;;6.40;4.15;;;;;;;;;;5051860;28;20039;-67
2023/04/16 06:03:01;;;;;;;7.20;4.05;;;;;;;;;;5052039;28;20040;-68
2023/04/16 06:05:28;;;;;;;7.20;4.00;;;;;;;;;;5052171;28;20025;-68
2023/04/16 06:07:54;;;;;;;6.65;4.40;;;;;;;;;;5051715;28;20031;-68
2023/04/16 06:10:21;;;;;;;5.78;3.95;;;;;;;;;;5052184;28;20029;-68
2023/04/16 06:12:47;;;;;;;6.93;3.90;;;;;;;;;;5051819;28;20020;-68
2023/04/16 06:15:14;;;;;;;7.75;3.90;;;;;;;;;;5052183;28;20025;-68
2023/04/16 06:17:40;;;;;;;8.57;4.20;;;;;;;;;;5051925;28;20040;-68
2023/04/16 06:20:07;;;;;;;7.30;3.92;;;;;;;;;;5051666;28;20035;-68
2023/04/16 06:22:33;;;;;;;6.70;4.05;;;;;;;;;;5051499;28;20490;-68
2023/04/16 06:25:00;;;;;;;5.28;4.15;;;;;;;;;;5051900;28;20013;-68
2023/04/16 06:27:26;;;;;;;9.43;4.65;;;;;;;;;;5051917;28;20033;-68
2023/04/16 06:29:52;;;;;;;5.15;4.00;;;;;;;;;;5051600;28;20043;-68
2023/04/16 06:32:19;;;;;;;5.35;3.83;;;;;;;;;;5051644;28;20041;-68
2023/04/16 06:34:45;;;;;;;5.63;4.20;;;;;;;;;;5051883;28;20021;-68
2023/04/16 06:37:12;;;;;;;7.38;4.68;;;;;;;;;;5051396;28;20021;-68
2023/04/16 06:39:38;;;;;;;6.65;4.43;;;;;;;;;;5051795;28;20032;-68
2023/04/16 06:42:04;;;;;;;6.10;4.30;;;;;;;;;;5053287;28;20037;-68
2023/04/16 06:44:31;;;;;;;8.68;5.00;;;;;;;;;;5055396;28;20021;-68
2023/04/16 06:46:57;;;;;;;8.18;5.32;;;;;;;;;;5055531;28;20013;-68
2023/04/16 06:49:24;;;;;;;10.68;5.90;;;;;;;;;;5055589;28;20067;-68
2023/04/16 06:51:50;;;;;;;5.63;4.63;;;;;;;;;;5055069;28;20025;-68
2023/04/16 06:54:17;;;;;;;7.53;4.85;;;;;;;;;;5055468;28;20028;-68
2023/04/16 06:56:43;;;;;;;7.18;4.25;;;;;;;;;;5055072;28;20043;-68
2023/04/16 06:59:10;;;;;;;5.75;4.15;;;;;;;;;;5055412;28;20094;-68
2023/04/16 07:01:36;;;;;;;6.53;4.45;;;;;;;;;;5055034;28;20037;-68
2023/04/16 07:04:03;;;;;;;8.70;4.47;;;;;;;;;;5055086;28;20472;-68
2023/04/16 07:06:30;;;;;;;5.85;4.28;;;;;;;;;;5054861;28;20043;-69
2023/04/16 07:08:56;;;;;;;6.15;4.50;;;;;;;;;;5055023;28;20025;-68
2023/04/16 07:11:24;;;;;;;6.05;4.35;;;;;;;;;;5054945;28;20490;-69
2023/04/16 07:13:52;;;;;;;7.82;4.78;;;;;;;;;;5054846;28;20031;-69
2023/04/16 07:16:18;;;;;;;7.47;4.75;;;;;;;;;;5054963;28;20021;-69
2023/04/16 07:18:45;;;;;;;5.90;4.05;;;;;;;;;;5055071;28;20037;-68
2023/04/16 07:21:11;;;;;;;6.22;4.43;;;;;;;;;;5054441;28;20497;-68
2023/04/16 07:23:37;;;;;;;6.70;4.22;;;;;;;;;;5054940;28;20021;-68
2023/04/16 07:26:04;;;;;;;7.25;4.53;;;;;;;;;;5054775;28;20393;-68
2023/04/16 07:28:30;;;;;;;5.20;4.57;;;;;;;;;;5054754;28;20028;-68
2023/04/16 07:30:56;;;;;;;5.95;4.20;;;;;;;;;;5054519;28;20051;-68
2023/04/16 07:33:23;;;;;;;6.07;4.85;;;;;;;;;;5054818;28;20036;-68
2023/04/16 07:35:50;;;;;;;7.18;4.72;;;;;;;;;;5054077;28;20466;-68
2023/04/16 07:38:16;;;;;;;9.02;4.78;;;;;;;;;;5054554;28;20028;-68
2023/04/16 07:40:43;;;;;;;5.38;4.57;;;;;;;;;;5054225;28;20041;-68
2023/04/16 07:43:09;;;;;;;4.63;3.90;;;;;;;;;;5054270;28;20037;-68
2023/04/16 07:45:36;;;;;;;5.60;4.25;;;;;;;;;;5054626;28;20031;-68
2023/04/16 07:48:02;;;;;;;6.00;4.50;;;;;;;;;;5054215;28;20032;-66
2023/04/16 07:50:28;;;;;;;5.57;3.80;;;;;;;;;;5053969;28;20017;-68
2023/04/16 07:52:55;;;;;;;8.40;4.20;;;;;;;;;;5053136;28;20490;-69
2023/04/16 07:55:21;;;;;;;4.20;3.53;;;;;;;;;;5054250;28;20025;-68
2023/04/16 07:57:47;;;;;;;8.23;4.57;;;;;;;;;;5054353;28;20031;-68
2023/04/16 08:00:14;;;;;;;6.75;5.00;;;;;;;;;;5053855;28;20032;-68
2023/04/16 08:02:40;;;;;;;6.00;4.53;;;;;;;;;;5054345;28;20021;-66
2023/04/16 08:05:07;;;;;;;6.32;4.97;;;;;;;;;;5053809;28;20029;-69
2023/04/16 08:07:33;;;;;;;5.97;4.05;;;;;;;;;;5053987;28;20031;-68
2023/04/16 08:10:00;;;;;;;5.10;4.20;;;;;;;;;;5053860;28;20420;-67
2023/04/16 08:12:26;;;;;;;6.00;4.30;;;;;;;;;;5053941;28;20090;-68
2023/04/16 08:14:52;;;;;;;5.68;4.13;;;;;;;;;;5053799;28;20033;-68
2023/04/16 08:17:19;;;;;;;4.93;3.85;;;;;;;;;;5053479;28;20428;-68
2023/04/16 08:19:45;;;;;;;4.93;4.13;;;;;;;;;;5053570;28;20037;-68
2023/04/16 08:22:12;;;;;;;6.70;4.70;;;;;;;;;;5053664;28;20031;-68
2023/04/16 08:24:38;;;;;;;6.30;4.10;;;;;;;;;;5053525;28;20047;-68
2023/04/16 08:27:05;;;;;;;6.43;4.55;;;;;;;;;;5053788;28;20236;-68
2023/04/16 08:29:31;;;;;;;6.93;4.22;;;;;;;;;;5053341;28;20444;-68
2023/04/16 08:31:58;;;;;;;7.18;4.13;;;;;;;;;;5053319;28;20021;-68
2023/04/16 08:34:25;;;;;;;4.32;3.92;;;;;;;;;;5053759;28;20086;-68
2023/04/16 08:36:51;;;;;;;7.90;4.18;;;;;;;;;;5053349;28;20025;-68
2023/04/16 08:39:17;;;;;;;5.28;3.90;;;;;;;;;;5053495;28;20035;-68
2023/04/16 08:41:45;;;;;;;5.55;3.80;;;;;;;;;;5053217;28;20047;-68
2023/04/16 08:44:20;;;;;;;6.28;4.20;;;;;;;;;;5053110;28;20031;-68
2023/04/16 08:46:47;;;;;;;6.03;3.63;;;;;;;;;;5052962;28;20397;-68
2023/04/16 08:49:17;;;;;;;4.82;3.72;;;;;;;;;;5053066;28;20416;-68
2023/04/16 08:51:45;;;;;;;6.38;3.72;;;;;;;;;;5053400;28;20025;-68
2023/04/16 08:54:13;;;;;;;6.00;3.38;;;;;;;;;;5053263;28;20039;-68
2023/04/16 08:56:41;;;;;;;3.25;2.88;;;;;;;;;;5052869;28;20025;-68
2023/04/16 08:59:08;;;;;;;5.07;3.13;;;;;;;;;;5052873;28;20021;-68
2023/04/16 09:01:37;;;;;;;4.22;2.92;;;;;;;;;;5052604;28;20033;-68
2023/04/16 09:04:04;;;;;;;5.40;3.53;;;;;;;;;;5052539;28;20020;-68
2023/04/16 09:06:32;;;;;;;4.85;3.00;;;;;;;;;;5052720;28;20037;-68
2023/04/16 09:08:59;;;;;;;5.25;2.75;;;;;;;;;;5052779;28;20036;-68
2023/04/16 09:11:25;;;;;;;3.85;2.88;;;;;;;;;;5053251;28;20025;-68
2023/04/16 09:13:51;;;;;;;3.75;2.65;;;;;;;;;;5052617;28;20021;-68
2023/04/16 09:16:18;;;;;;;5.28;3.42;;;;;;;;;;5052461;28;20436;-68
2023/04/16 09:18:46;;;;;;;4.93;2.85;;;;;;;;;;5052697;28;20025;-68
2023/04/16 09:21:13;;;;;;;6.00;2.90;;;;;;;;;;5052461;28;20033;-67
2023/04/16 09:23:40;;;;;;;3.20;2.70;;;;;;;;;;5052520;28;20393;-68
2023/04/16 09:26:06;;;;;;;4.90;2.75;;;;;;;;;;5052957;28;20036;-68
2023/04/16 09:28:43;;;;;;;3.88;2.75;;;;;;;;;;5052406;28;20021;-68
2023/04/16 09:31:11;;;;;;;6.30;2.95;;;;;;;;;;5051968;28;20049;-68
2023/04/16 09:33:37;;;;;;;5.65;3.20;;;;;;;;;;5052458;28;20025;-68
2023/04/16 09:36:04;;;;;;;7.10;2.90;;;;;;;;;;5052368;28;20025;-68
2023/04/16 09:38:49;;;;;;;4.40;2.47;;;;;;;;;;5052070;28;20477;-68
2023/04/16 09:41:16;;;;;;;4.25;2.67;;;;;;;;;;5052099;28;20040;-68
2023/04/16 09:43:49;;;;;;;6.35;2.35;;;;;;;;;;5052109;28;20088;-68
2023/04/16 09:46:15;;;;;;;4.10;2.80;;;;;;;;;;5051938;28;20488;-68
2023/04/16 09:48:45;;;;;;;4.75;2.38;;;;;;;;;;5052077;28;20027;-68
2023/04/16 09:51:12;;;;;;;2.65;2.22;;;;;;;;;;5052007;28;20035;-68
2023/04/16 09:53:38;;;;;;;2.30;2.10;;;;;;;;;;5051987;28;20020;-68
2023/04/16 09:56:05;;;;;;;3.17;2.33;;;;;;;;;;5052098;28;20105;-68
2023/04/16 09:58:32;;;;;;;2.92;2.50;;;;;;;;;;5051974;28;20033;-68
2023/04/16 10:01:02;;;;;;;3.95;2.50;;;;;;;;;;5051704;28;20033;-68
2023/04/16 10:03:30;;;;;;;4.18;2.40;;;;;;;;;;5051974;28;20029;-68
2023/04/16 10:05:58;;;;;;;3.08;2.40;;;;;;;;;;5051852;28;20025;-68
2023/04/16 10:08:25;;;;;;;3.53;2.40;;;;;;;;;;5052051;28;20021;-68
2023/04/16 10:10:52;;;;;;;3.60;3.00;;;;;;;;;;5051971;28;20025;-68
2023/04/16 10:13:18;;;;;;;2.92;2.33;;;;;;;;;;5051651;28;20029;-68
2023/04/16 10:15:45;;;;;;;3.65;2.35;;;;;;;;;;5051820;28;20017;-68
2023/04/16 10:18:12;;;;;;;5.00;2.38;;;;;;;;;;5055656;28;20021;-68
2023/04/16 10:20:38;;;;;;;4.13;2.17;;;;;;;;;;5055829;28;20036;-68
2023/04/16 10:23:04;;;;;;;2.92;2.10;;;;;;;;;;5056140;28;20035;-68
2023/04/16 10:25:31;;;;;;;3.20;2.17;;;;;;;;;;5055899;28;20036;-68
2023/04/16 10:27:58;;;;;;;2.83;2.03;;;;;;;;;;5055622;28;20385;-68
2023/04/16 10:30:25;;;;;;;4.35;2.22;;;;;;;;;;5055587;28;20045;-66
2023/04/16 10:32:52;;;;;;;4.78;2.65;;;;;;;;;;5055690;28;20025;-67
2023/04/16 10:35:21;;;;;;;3.47;2.20;;;;;;;;;;5055647;28;20489;-68
2023/04/16 10:37:47;;;;;;;2.90;2.10;;;;;;;;;;5055518;28;20469;-68
2023/04/16 10:40:26;;;;;;;4.30;2.25;;;;;;;;;;5055853;28;20029;-68
2023/04/16 10:42:54;;;;;;;3.55;1.80;;;;;;;;;;5055623;28;20036;-68
2023/04/16 10:45:25;;;;;;;3.55;2.08;;;;;;;;;;5055350;28;20508;-68
2023/04/16 10:47:55;;;;;;;2.55;1.90;;;;;;;;;;5055393;28;20025;-68
2023/04/16 10:50:22;;;;;;;6.15;2.67;;;;;;;;;;5055770;28;20013;-68
2023/04/16 10:52:48;;;;;;;5.40;2.40;;;;;;;;;;5054414;28;20449;-68
2023/04/16 10:55:18;;;;;;;4.88;2.13;;;;;;;;;;5055336;28;20473;-68
2023/04/16 10:57:48;;;;;;;2.83;1.80;;;;;;;;;;5055214;28;20025;-68
2023/04/16 11:00:21;;;;;;;5.78;2.47;;;;;;;;;;5055069;28;20045;-68
2023/04/16 11:02:52;;;;;;;3.72;2.15;;;;;;;;;;5055047;28;20511;-68
2023/04/16 11:05:21;;;;;;;3.17;1.90;;;;;;;;;;5055140;28;20500;-68
2023/04/16 11:07:48;;;;;;;2.92;1.70;;;;;;;;;;5055058;28;20013;-68
2023/04/16 11:10:14;;;;;;;5.53;1.92;;;;;;;;;;5054977;28;20041;-68
2023/04/16 11:12:43;;;;;;;6.38;1.95;;;;;;;;;;5054683;28;20079;-68
2023/04/16 11:15:13;;;;;;;2.45;1.80;;;;;;;;;;5055087;28;20029;-68
2023/04/16 11:17:46;;;;;;;4.05;2.15;;;;;;;;;;5054042;28;20025;-68
2023/04/16 11:20:15;;;;;;;3.20;1.80;;;;;;;;;;5054950;28;20025;-68
2023/04/16 11:22:44;;;;;;;3.35;1.80;;;;;;;;;;5055020;28;20032;-68
2023/04/16 11:25:10;;;;;;;2.35;1.67;;;;;;;;;;5054920;28;20024;-68
2023/04/16 11:27:37;;;;;;;3.75;1.88;;;;;;;;;;5054381;28;20359;-68
2023/04/16 11:30:04;;;;;;;4.38;2.28;;;;;;;;;;5054697;28;20044;-68
2023/04/16 11:32:31;;;;;;;3.03;2.03;;;;;;;;;;5053176;28;20486;-68
2023/04/16 11:35:02;;;;;;;3.25;2.20;;;;;;;;;;5054842;28;20017;-68
2023/04/16 11:37:35;;;;;;;4.20;1.95;;;;;;;;;;5054523;28;20440;-67
2023/04/16 11:40:03;;;;;;;3.42;1.90;;;;;;;;;;5054199;28;20452;-68
2023/04/16 11:42:30;;;;;;;2.50;1.80;;;;;;;;;;5054482;28;20021;-68
2023/04/16 11:44:59;;;;;;;5.78;1.63;;;;;;;;;;5054551;28;20039;-68
2023/04/16 11:47:26;;;;;;;3.47;1.92;;;;;;;;;;5054243;28;20037;-68
2023/04/16 11:49:52;;;;;;;3.63;1.77;;;;;;;;;;5054531;28;20029;-68
2023/04/16 11:52:30;;;;;;;3.00;1.85;;;;;;;;;;5054494;28;20024;-68
2023/04/16 11:54:57;;;;;;;5.10;1.98;;;;;;;;;;5054503;28;20025;-68
2023/04/16 11:57:27;;;;;;;3.55;1.80;;;;;;;;;;5054337;28;20013;-67
2023/04/16 11:59:54;;;;;;;2.70;1.67;;;;;;;;;;5054133;28;20033;-68
2023/04/16 12:02:38;;;;;;;3.40;1.60;;;;;;;;;;5054440;28;20055;-68
2023/04/16 12:05:07;;;;;;;2.42;1.30;;;;;;;;;;5053981;28;20021;-68
2023/04/16 12:07:53;;;;;;;2.88;1.77;;;;;;;;;;5054256;28;20025;-68
2023/04/16 12:10:20;;;;;;;2.95;1.40;;;;;;;;;;5053651;28;20032;-68
2023/04/16 12:12:46;;;;;;;1.92;1.40;;;;;;;;;;5053951;28;20032;-68
2023/04/16 12:15:12;;;;;;;4.25;1.73;;;;;;;;;;5053691;28;20021;-68
2023/04/16 12:17:39;;;;;;;3.05;1.80;;;;;;;;;;5053927;28;20027;-68
2023/04/16 12:20:13;;;;;;;6.80;3.55;;;;;;;;;;5053856;28;20021;-68
2023/04/16 12:22:40;;;;;;;4.93;2.95;;;;;;;;;;5053623;28;20074;-68
2023/04/16 12:25:16;;;;;;;3.22;1.90;;;;;;;;;;5053339;28;20363;-68
2023/04/16 12:27:47;;;;;;;3.35;1.67;;;;;;;;;;5053611;28;20501;-67
2023/04/16 12:30:14;;;;;;;3.05;1.40;;;;;;;;;;5053450;28;20045;-68
2023/04/16 12:32:42;;;;;;;3.65;1.10;;;;;;;;;;5053389;28;20050;-68
2023/04/16 12:35:09;;;;;;;2.97;1.48;;;;;;;;;;5053742;28;20031;-68
2023/04/16 12:37:36;;;;;;;5.93;1.25;;;;;;;;;;5053706;28;20032;-68
2023/04/16 12:40:03;;;;;;;1.92;0.98;;;;;;;;;;5052668;28;20074;-68
2023/04/16 12:42:34;;;;;;;1.02;0.70;;;;;;;;;;5053360;28;20017;-68
2023/04/16 12:45:02;;;;;;;1.02;0.80;;;;;;;;;;5053157;28;20494;-68
2023/04/16 12:47:29;;;;;;;2.22;1.00;;;;;;;;;;5053258;28;20024;-68
2023/04/16 12:49:56;;;;;;;1.98;1.00;;;;;;;;;;5053154;28;20025;-68
2023/04/16 12:52:23;;;;;;;1.10;0.82;;;;;;;;;;5053002;28;20488;-68
2023/04/16 12:54:50;;;;;;;3.25;0.73;;;;;;;;;;5053093;28;20075;-68
2023/04/16 12:57:16;;;;;;;0.95;0.80;;;;;;;;;;5053202;28;20035;-68
2023/04/16 12:59:42;;;;;;;1.00;0.60;;;;;;;;;;5052994;28;20046;-68
2023/04/16 13:02:09;;;;;;;1.00;0.90;;;;;;;;;;5052879;28;20025;-68
2023/04/16 13:04:35;;;;;;;2.38;1.20;;;;;;;;;;5053077;28;20023;-68
2023/04/16 13:07:01;;;;;;;2.03;0.90;;;;;;;;;;5052985;28;20409;-67
2023/04/16 13:09:28;;;;;;;1.20;1.10;;;;;;;;;;5052586;28;20032;-68
2023/04/16 13:11:54;;;;;;;2.95;0.90;;;;;;;;;;5052625;28;20381;-68
2023/04/16 13:14:21;;;;;;;1.13;0.90;;;;;;;;;;5052738;28;20473;-68
2023/04/16 13:16:47;;;;;;;1.50;1.02;;;;;;;;;;5052916;28;20032;-68
2023/04/16 13:19:14;;;;;;;1.05;0.80;;;;;;;;;;5052630;28;20025;-68
2023/04/16 13:21:41;;;;;;;0.95;0.80;;;;;;;;;;5052680;28;20033;-68
2023/04/16 13:24:07;;;;;;;1.13;0.80;;;;;;;;;;5052509;28;20474;-68
2023/04/16 13:26:33;;;;;;;1.50;0.70;;;;;;;;;;5052451;28;20051;-68
2023/04/16 13:29:00;;;;;;;1.08;0.98;;;;;;;;;;5050955;28;20017;-68
2023/04/16 13:31:26;;;;;;;1.20;0.70;;;;;;;;;;5052127;28;20427;-68
2023/04/16 13:33:52;;;;;;;1.27;0.68;;;;;;;;;;5052361;28;20474;-68
2023/04/16 13:36:19;;;;;;;1.30;0.80;;;;;;;;;;5052167;28;20483;-68
2023/04/16 13:38:45;;;;;;;1.33;0.70;;;;;;;;;;5052557;28;20035;-68
2023/04/16 13:41:12;;;;;;;1.25;0.80;;;;;;;;;;5052097;28;20029;-68
2023/04/16 13:43:38;;;;;;;0.85;0.70;;;;;;;;;;5052513;28;20021;-67
2023/04/16 13:46:04;;;;;;;1.20;0.80;;;;;;;;;;5052081;28;20024;-68
2023/04/16 13:48:31;;;;;;;2.35;0.60;;;;;;;;;;5052125;28;20025;-68
2023/04/16 13:50:57;;;;;;;1.38;0.70;;;;;;;;;;5051194;28;20029;-67
2023/04/16 13:53:24;;;;;;;1.05;0.68;;;;;;;;;;5051872;28;20482;-67
2023/04/16 13:55:50;;;;;;;1.35;0.70;;;;;;;;;;5051966;28;20542;-67
2023/04/16 13:58:17;;;;;;;2.30;0.70;;;;;;;;;;5052003;28;20029;-68
2023/04/16 14:00:43;;;;;;;1.38;0.60;;;;;;;;;;5051762;28;20051;-68
2023/04/16 14:03:09;;;;;;;1.15;0.60;;;;;;;;;;5052149;28;20025;-68
2023/04/16 14:05:36;;;;;;;1.10;0.70;;;;;;;;;;5051696;28;20028;-68
2023/04/16 14:08:02;;;;;;;1.48;0.60;;;;;;;;;;5052233;28;20597;-68
2023/04/16 14:10:49;;;;;;;0.65;0.60;;;;;;;;;;5009998;28;20528;-68
2023/04/16 14:13:15;;;;;;;1.25;0.70;;;;;;;;;;5010029;28;20406;-67
2023/04/16 14:15:41;;;;;;;0.70;0.50;;;;;;;;;;5010074;28;20037;-67
2023/04/16 14:18:07;;;;;;;1.48;0.52;;;;;;;;;;5010066;28;20453;-67
2023/04/16 14:20:34;;;;;;;2.50;0.60;;;;;;;;;;5009747;28;20045;-67
2023/04/16 14:23:00;;;;;;;0.57;0.57;;;;;;;;;;5009842;28;20041;-67
2023/04/16 14:25:27;;;;;;;0.90;0.50;;;;;;;;;;5010051;28;20038;-68
2023/04/16 14:27:54;;;;;;;0.90;0.70;;;;;;;;;;5009912;28;20026;-68
2023/04/16 14:30:20;;;;;;;0.82;0.73;;;;;;;;;;5009987;28;20062;-68
2023/04/16 14:32:46;;;;;;;0.65;0.60;;;;;;;;;;5009885;28;20411;-68
2023/04/16 14:35:13;;;;;;;1.25;0.70;;;;;;;;;;5009927;28;20038;-68
2023/04/16 14:37:40;;;;;;;2.17;0.90;;;;;;;;;;5009991;28;20485;-68
2023/04/16 14:40:07;;;;;;;0.73;0.73;;;;;;;;;;5009869;28;20030;-67
2023/04/16 14:42:35;;;;;;;1.02;0.60;;;;;;;;;;5009745;28;20168;-68